Little Valley, Nevada Weather observations

Data are for 10 minute period ending at time listed.
 Day   Time    Ave.   Ave.  Ave.  Vector   Max.   Total    Solar   
  of    of     Air    Rel.  Wind   Wind    Wind  Precip.   Rad.    
Year   Day     Temp.  Hum.  Speed  Dir.    Gust                    
2014   (PST)    F      %     mph   deg.    mph     in.     W/m2    
------------------------------------------------------------------- 
 109    9:00   51.0    53    9.0   273     22.0   15.92     675  
 109   10:00   55.0    46   10.0   239     25.0   15.92     912  
 109   11:00   55.0    37   10.0    74     24.0   15.92     792  
 109   12:00   56.0    32   10.0   243     24.0   15.92    1082  
 109   13:00   58.0    31   11.0   245     24.0   15.92    1010  
 109   14:00   58.0    29   11.0   228     24.0   15.92    1143  
 109   15:00   58.0    28   10.0   302     31.0   15.92    1021  
 109   16:00   58.0    27   15.0   259     29.0   15.92     841  
 109   17:00   57.0    24   11.0   239     27.0   15.92     617  
 109   18:00   52.0    25   13.0   259     29.0   15.92     232  
 109   19:00   49.0    24   14.0   266     27.0   15.92      48  
 109   20:00   49.0    25   14.0   258     29.0   15.92       0  
 109   21:00   48.0    20   11.0   280     26.0   15.92       0  
 109   22:00   47.0    16    7.0   268     25.0   15.92       0  
 109   23:00   44.0    17    4.0   196     13.0   15.92       0  
 110    0:00   41.0    27    0.0   133     17.0   15.92       0  
 110    1:00   34.0    43    0.0   238      5.0   15.92       0  
 110    2:00   41.0    33    1.0   187     15.0   15.92       0  
 110    3:00   32.0    54    1.0   166      5.0   15.92       0  
 110    4:00   28.0    70    0.0   205      4.0   15.92       0  
 110    5:00   26.0    75    0.0   161      4.0   15.92       0  
 110    6:00   26.0    75    0.0   238      3.0   15.92       4  
 110    7:00   33.0    65    0.0    18      3.0   15.92     117  
 110    8:00   46.0    40    0.0   153      1.0   15.92     399  

Return to Little Valley, Nevada graphs page.


Western Regional Climate Center,wrcc@dri.edu